Time;durP1;ratioP1;P1;durP2;ratioP2;P2;SDS_P1;SDS_P2;PMS_P1;PMS_P2;Temp;Humidity;BMP_temperature;BMP_pressure;BME280_temperature;BME280_humidity;BME280_pressure;Samples;Min_cycle;Max_cycle;Signal;HPM_P1;HPM_P2
2023/04/14 00:01:14;;;;;;;0.00;0.00;;;;;;;4.21;43.63;99891.06;4944479;29;20051;-65
2023/04/14 00:03:41;;;;;;;0.10;0.10;;;;;;;4.17;43.48;99914.22;4946062;29;20055;-65
2023/04/14 00:06:07;;;;;;;0.80;0.10;;;;;;;4.07;43.66;99916.66;4943577;29;20043;-66
2023/04/14 00:08:33;;;;;;;0.10;0.10;;;;;;;3.97;43.87;99911.78;4940359;29;20051;-65
2023/04/14 00:10:59;;;;;;;0.10;0.10;;;;;;;3.87;44.01;99916.91;4923623;29;20073;-65
2023/04/14 00:13:26;;;;;;;0.00;0.00;;;;;;;3.88;44.07;99921.25;4918890;29;20506;-66
2023/04/14 00:15:53;;;;;;;0.10;0.10;;;;;;;3.78;44.20;99919.94;4927228;29;20051;-65
2023/04/14 00:18:19;;;;;;;0.10;0.10;;;;;;;3.75;44.42;99914.97;4946905;29;20047;-66
2023/04/14 00:20:46;;;;;;;0.10;0.10;;;;;;;3.66;44.56;99930.66;4947099;29;20138;-66
2023/04/14 00:23:12;;;;;;;0.10;0.10;;;;;;;3.66;44.63;99927.16;4943034;29;20392;-65
2023/04/14 00:25:38;;;;;;;0.10;0.10;;;;;;;3.62;44.64;99920.53;4936809;29;20051;-65
2023/04/14 00:28:04;;;;;;;0.10;0.10;;;;;;;3.50;44.88;99909.63;4941752;29;20400;-65
2023/04/14 00:30:32;;;;;;;0.10;0.10;;;;;;;3.45;45.02;99931.97;4923354;29;20043;-66
2023/04/14 00:32:58;;;;;;;0.10;0.10;;;;;;;3.40;45.09;99927.22;4927002;29;20538;-66
2023/04/14 00:35:24;;;;;;;0.10;0.10;;;;;;;3.38;45.16;99931.19;4943568;29;20571;-66
2023/04/14 00:37:50;;;;;;;0.10;0.10;;;;;;;3.37;45.32;99933.09;4928794;29;20047;-65
2023/04/14 00:40:16;;;;;;;0.10;0.10;;;;;;;3.26;45.47;99942.72;4946367;29;20043;-66
2023/04/14 00:42:44;;;;;;;0.35;0.20;;;;;;;3.27;45.53;99938.16;4927217;29;20055;-65
2023/04/14 00:45:10;;;;;;;0.10;0.10;;;;;;;3.21;45.48;99956.09;4943721;29;20063;-65
2023/04/14 00:47:40;;;;;;;0.10;0.10;;;;;;;3.12;45.66;99947.44;4943145;29;20051;-66
2023/04/14 00:50:09;;;;;;;0.32;0.10;;;;;;;3.10;45.68;99949.53;4925139;29;20318;-65
2023/04/14 00:52:36;;;;;;;0.20;0.20;;;;;;;3.07;45.55;99962.66;4931495;29;20066;-65
2023/04/14 00:55:04;;;;;;;0.00;0.00;;;;;;;3.04;45.52;99968.50;4910216;29;20048;-65
2023/04/14 00:57:30;;;;;;;0.20;0.10;;;;;;;3.06;45.75;99955.59;4909621;29;20055;-65
2023/04/14 00:59:57;;;;;;;0.47;0.10;;;;;;;2.99;45.91;99950.25;4924226;29;20142;-65
2023/04/14 01:02:24;;;;;;;0.10;0.10;;;;;;;2.93;46.10;99951.97;4910416;29;20106;-65
2023/04/14 01:04:52;;;;;;;0.10;0.10;;;;;;;2.75;46.02;99947.34;4927406;28;20047;-65
2023/04/14 01:07:18;;;;;;;0.10;0.10;;;;;;;2.80;46.00;99966.41;4929351;29;20054;-65
2023/04/14 01:09:44;;;;;;;0.10;0.10;;;;;;;2.73;46.13;99946.72;4956823;28;20051;-65
2023/04/14 01:12:20;;;;;;;0.22;0.13;;;;;;;2.61;46.13;99957.41;4926509;29;20518;-65
2023/04/14 01:14:54;;;;;;;0.10;0.10;;;;;;;2.53;46.56;99963.88;4947054;29;20050;-65
2023/04/14 01:17:29;;;;;;;0.15;0.10;;;;;;;2.47;46.62;99953.97;4931123;29;20047;-65
2023/04/14 01:20:06;;;;;;;0.10;0.10;;;;;;;2.54;46.62;99962.03;4948887;29;20051;-65
2023/04/14 01:22:36;;;;;;;0.10;0.10;;;;;;;2.57;46.26;99960.75;4924710;29;20055;-64
2023/04/14 01:25:26;;;;;;;0.00;0.00;;;;;;;2.53;46.09;99971.19;4948627;29;20049;-64
2023/04/14 01:28:08;;;;;;;0.10;0.10;;;;;;;2.38;46.35;99975.00;4931903;29;20062;-64
2023/04/14 01:30:47;;;;;;;0.10;0.10;;;;;;;2.32;46.65;99989.34;4933497;29;20059;-65
2023/04/14 01:33:19;;;;;;;0.10;0.10;;;;;;;2.29;46.57;99989.78;4932627;29;20515;-64
2023/04/14 01:35:50;;;;;;;0.10;0.10;;;;;;;2.27;46.54;99983.75;4945975;29;20098;-65
2023/04/14 01:38:24;;;;;;;0.10;0.10;;;;;;;2.34;46.43;99989.13;4947494;29;20054;-64
2023/04/14 01:40:56;;;;;;;0.10;0.10;;;;;;;2.39;46.26;100006.34;4933094;29;20130;-65
2023/04/14 01:43:26;;;;;;;0.10;0.10;;;;;;;2.40;46.03;99999.88;4946789;29;20046;-65
2023/04/14 01:45:56;;;;;;;0.10;0.10;;;;;;;2.41;46.19;100014.19;4948585;29;20047;-65
2023/04/14 01:48:25;;;;;;;0.38;0.20;;;;;;;2.40;46.02;100017.94;4939919;29;20055;-65
2023/04/14 01:50:53;;;;;;;0.10;0.10;;;;;;;2.41;46.20;100014.19;4942990;29;20047;-65
2023/04/14 01:53:21;;;;;;;0.10;0.10;;;;;;;2.47;45.95;100012.50;4927898;29;20051;-65
2023/04/14 01:55:48;;;;;;;;;;;;;;;2.47;46.06;100020.59;4928901;29;20083;-64
2023/04/14 01:58:16;;;;;;;0.10;0.10;;;;;;;2.48;46.24;99997.97;4929494;29;19977;-65
2023/04/14 02:00:44;;;;;;;0.10;0.10;;;;;;;2.44;45.69;100012.94;4911007;29;20368;-64
2023/04/14 02:03:11;;;;;;;;;;;;;;;2.34;46.17;100013.41;4928291;29;20055;-65
2023/04/14 02:05:40;;;;;;;0.10;0.10;;;;;;;2.27;46.14;100024.25;4945551;29;20121;-64
2023/04/14 02:08:10;;;;;;;1.02;0.15;;;;;;;2.19;46.27;100022.63;4928021;29;20055;-64
2023/04/14 02:10:38;;;;;;;0.10;0.10;;;;;;;2.15;46.43;100039.44;4929767;29;20051;-65
2023/04/14 02:13:06;;;;;;;0.10;0.10;;;;;;;2.12;46.36;100036.13;4932157;29;20075;-65
2023/04/14 02:15:32;;;;;;;;;;;;;;;2.12;46.47;100029.91;4948578;29;20051;-65
2023/04/14 02:17:59;;;;;;;0.10;0.10;;;;;;;2.11;46.09;100031.78;4946360;28;19926;-65
2023/04/14 02:20:26;;;;;;;0.00;0.00;;;;;;;2.07;46.32;100044.03;4947425;29;20051;-65
2023/04/14 02:22:54;;;;;;;0.10;0.10;;;;;;;2.04;46.32;100054.41;4925963;29;20146;-64
2023/04/14 02:25:23;;;;;;;0.10;0.10;;;;;;;2.10;46.40;100053.56;4945931;29;20142;-66
2023/04/14 02:27:53;;;;;;;0.10;0.10;;;;;;;2.18;46.30;100061.44;4945920;29;20133;-65
2023/04/14 02:30:23;;;;;;;0.10;0.10;;;;;;;2.17;46.15;100075.97;4945256;29;20522;-65
2023/04/14 02:32:55;;;;;;;0.10;0.10;;;;;;;2.11;46.27;100074.13;4927426;29;20043;-65
2023/04/14 02:35:26;;;;;;;0.28;0.10;;;;;;;2.04;46.61;100057.13;4928544;29;20051;-65
2023/04/14 02:38:03;;;;;;;0.10;0.10;;;;;;;1.94;46.46;100079.13;4947990;29;20047;-65
2023/04/14 02:40:31;;;;;;;0.10;0.10;;;;;;;1.87;46.70;100067.50;4926780;29;20443;-65
2023/04/14 02:43:01;;;;;;;0.10;0.10;;;;;;;1.91;46.65;100063.38;4946055;29;20503;-65
2023/04/14 02:45:31;;;;;;;0.10;0.10;;;;;;;1.84;46.86;100069.59;4928723;29;20046;-65
2023/04/14 02:48:02;;;;;;;0.10;0.10;;;;;;;1.81;47.07;100074.59;4916707;29;20431;-65
2023/04/14 02:50:32;;;;;;;0.17;0.10;;;;;;;1.78;46.93;100064.22;4927300;29;20047;-65
2023/04/14 02:53:17;;;;;;;0.43;0.10;;;;;;;1.71;46.80;100080.41;4928335;29;20144;-64
2023/04/14 02:55:45;;;;;;;0.10;0.10;;;;;;;1.65;46.96;100083.94;4927505;29;20051;-65
2023/04/14 02:58:11;;;;;;;;;;;;;;;1.65;47.18;100073.16;4929236;29;20055;-64
2023/04/14 03:00:40;;;;;;;0.10;0.10;;;;;;;1.67;47.00;100087.25;4927442;29;19926;-65
2023/04/14 03:03:07;;;;;;;0.10;0.10;;;;;;;1.67;46.88;100077.31;4943317;29;20059;-65
2023/04/14 03:05:36;;;;;;;0.10;0.10;;;;;;;1.74;46.63;100088.09;4927981;29;20115;-65
2023/04/14 03:08:09;;;;;;;0.10;0.10;;;;;;;1.74;47.00;100090.78;4912124;29;20043;-64
2023/04/14 03:10:38;;;;;;;0.10;0.10;;;;;;;1.72;46.75;100084.78;4928391;29;20059;-64
2023/04/14 03:13:06;;;;;;;0.15;0.15;;;;;;;1.76;46.67;100091.41;4945369;29;20819;-65
2023/04/14 03:15:35;;;;;;;0.10;0.10;;;;;;;1.80;46.55;100095.34;4936660;29;20129;-65
2023/04/14 03:18:01;;;;;;;0.20;0.20;;;;;;;1.80;46.47;100105.31;4943921;29;20051;-64
2023/04/14 03:20:29;;;;;;;;;;;;;;;1.83;46.45;100108.38;4927875;29;20467;-64
2023/04/14 03:23:00;;;;;;;0.10;0.10;;;;;;;1.82;46.25;100112.13;4929056;29;20455;-64
2023/04/14 03:25:29;;;;;;;0.10;0.10;;;;;;;1.74;46.51;100109.66;4914590;29;20077;-65
2023/04/14 03:28:01;;;;;;;0.10;0.10;;;;;;;1.65;46.55;100113.59;4946680;28;20154;-65
2023/04/14 03:30:30;;;;;;;0.10;0.10;;;;;;;1.62;46.43;100114.84;4928751;28;20075;-65
2023/04/14 03:33:00;;;;;;;0.10;0.10;;;;;;;1.72;46.57;100111.75;4925012;29;20138;-64
2023/04/14 03:35:28;;;;;;;0.10;0.10;;;;;;;1.81;46.44;100113.16;4931419;29;20075;-64
2023/04/14 03:37:58;;;;;;;0.17;0.17;;;;;;;1.80;46.16;100114.22;4928416;29;20645;-65
2023/04/14 03:40:30;;;;;;;0.38;0.20;;;;;;;1.69;46.14;100112.13;4911782;29;20146;-65
2023/04/14 03:43:02;;;;;;;0.10;0.10;;;;;;;1.68;46.14;100129.34;4946324;28;20043;-65
2023/04/14 03:45:31;;;;;;;0.20;0.20;;;;;;;1.66;46.03;100116.09;4912825;29;20062;-65
2023/04/14 03:48:02;;;;;;;0.40;0.10;;;;;;;1.61;45.96;100115.06;4926589;29;20043;-65
2023/04/14 03:50:41;;;;;;;0.10;0.10;;;;;;;1.67;46.12;100117.75;4914805;29;20054;-65
2023/04/14 03:53:11;;;;;;;0.00;0.00;;;;;;;1.64;45.97;100118.19;4920114;28;20541;-65
2023/04/14 03:55:39;;;;;;;0.10;0.10;;;;;;;1.68;46.14;100118.56;4943122;29;20145;-65
2023/04/14 03:58:09;;;;;;;0.10;0.10;;;;;;;1.62;46.18;100119.41;4930002;29;20154;-65
2023/04/14 04:00:37;;;;;;;0.10;0.10;;;;;;;1.58;45.91;100131.66;4923620;29;20538;-65
2023/04/14 04:03:04;;;;;;;0.10;0.10;;;;;;;1.59;46.01;100134.13;4928710;29;20109;-65
2023/04/14 04:05:32;;;;;;;0.10;0.10;;;;;;;1.62;45.94;100127.50;4926198;29;20056;-65
2023/04/14 04:08:03;;;;;;;0.10;0.10;;;;;;;1.77;45.66;100132.66;4911215;29;20051;-65
2023/04/14 04:10:33;;;;;;;0.10;0.10;;;;;;;1.75;45.41;100137.44;4930883;29;20059;-65
2023/04/14 04:13:00;;;;;;;0.10;0.10;;;;;;;1.74;45.21;100128.53;4925824;29;20057;-67
2023/04/14 04:15:30;;;;;;;0.20;0.20;;;;;;;1.64;45.15;100133.50;4927974;29;20142;-66
2023/04/14 04:17:57;;;;;;;1.00;0.20;;;;;;;1.60;45.31;100145.75;4925789;29;20098;-65
2023/04/14 04:20:25;;;;;;;0.10;0.10;;;;;;;1.63;45.48;100132.66;4938352;29;20544;-65
2023/04/14 04:22:55;;;;;;;0.10;0.10;;;;;;;1.76;45.05;100133.72;4926900;29;20062;-65
2023/04/14 04:25:22;;;;;;;0.15;0.15;;;;;;;1.77;45.04;100140.75;4928344;29;20566;-65
2023/04/14 04:28:04;;;;;;;0.10;0.10;;;;;;;1.74;45.01;100139.31;4912372;29;20423;-65
2023/04/14 04:30:37;;;;;;;0.10;0.10;;;;;;;1.77;45.01;100155.09;4927527;29;20052;-65
2023/04/14 04:33:05;;;;;;;0.10;0.10;;;;;;;1.78;45.08;100142.41;4925497;29;20043;-65
2023/04/14 04:35:31;;;;;;;;;;;;;;;1.86;45.10;100134.13;4927537;29;20423;-65
2023/04/14 04:37:59;;;;;;;0.10;0.10;;;;;;;1.90;44.79;100131.84;4944892;29;19977;-65
2023/04/14 04:40:26;;;;;;;0.20;0.20;;;;;;;2.01;44.47;100139.28;4931015;29;20051;-64
2023/04/14 04:42:52;;;;;;;0.10;0.10;;;;;;;2.04;44.11;100128.09;4918277;29;20054;-65
2023/04/14 04:45:35;;;;;;;2.05;0.30;;;;;;;2.04;44.18;100143.44;4933794;29;20525;-65
2023/04/14 04:48:04;;;;;;;0.17;0.17;;;;;;;1.98;43.95;100135.16;4934393;29;20114;-65
2023/04/14 04:50:30;;;;;;;0.10;0.10;;;;;;;2.13;43.91;100158.38;4948439;29;20054;-65
2023/04/14 04:52:56;;;;;;;0.10;0.10;;;;;;;2.15;43.64;100140.09;4949560;29;20051;-65
2023/04/14 04:55:22;;;;;;;0.10;0.10;;;;;;;2.18;43.45;100153.16;4931491;29;20043;-65
2023/04/14 04:57:48;;;;;;;0.20;0.20;;;;;;;2.11;43.29;100130.78;4948994;29;20043;-64
2023/04/14 05:00:14;;;;;;;0.20;0.20;;;;;;;2.29;43.07;100154.38;4948180;29;20079;-65
2023/04/14 05:02:41;;;;;;;0.10;0.10;;;;;;;2.25;42.82;100143.16;4943209;28;20062;-65
2023/04/14 05:05:09;;;;;;;0.43;0.20;;;;;;;2.27;42.81;100145.66;4931023;29;20578;-65
2023/04/14 05:07:35;;;;;;;0.10;0.10;;;;;;;2.25;42.47;100145.06;4950938;29;20573;-65
2023/04/14 05:10:01;;;;;;;0.10;0.10;;;;;;;2.25;42.26;100158.56;4949801;29;20135;-65
2023/04/14 05:12:27;;;;;;;0.20;0.20;;;;;;;2.28;42.33;100154.63;4946015;28;20074;-64
2023/04/14 05:14:53;;;;;;;0.10;0.10;;;;;;;2.28;42.07;100162.72;4938121;28;20062;-65
2023/04/14 05:17:19;;;;;;;0.17;0.17;;;;;;;2.36;41.89;100159.75;4947583;28;20047;-65
2023/04/14 05:19:45;;;;;;;0.38;0.20;;;;;;;2.51;41.88;100162.22;4926555;29;20055;-65
2023/04/14 05:22:13;;;;;;;0.55;0.20;;;;;;;2.57;41.54;100158.66;4913844;29;20067;-65
2023/04/14 05:24:39;;;;;;;0.13;0.13;;;;;;;2.62;41.12;100171.53;4942265;28;20507;-65
2023/04/14 05:27:05;;;;;;;0.13;0.13;;;;;;;2.57;41.04;100155.13;4949354;29;20058;-66
2023/04/14 05:29:32;;;;;;;0.10;0.10;;;;;;;2.61;40.76;100162.59;4932445;29;20051;-66
2023/04/14 05:31:58;;;;;;;0.10;0.10;;;;;;;2.62;40.38;100156.16;4943224;28;20061;-66
2023/04/14 05:34:24;;;;;;;0.30;0.30;;;;;;;2.64;40.75;100155.94;4917167;29;20085;-66
2023/04/14 05:36:50;;;;;;;0.20;0.20;;;;;;;2.62;40.47;100166.13;4945998;29;20134;-66
2023/04/14 05:39:17;;;;;;;0.35;0.30;;;;;;;2.60;40.47;100170.94;4927906;29;20050;-65
2023/04/14 05:41:44;;;;;;;0.20;0.20;;;;;;;2.65;40.36;100171.09;4946380;29;20047;-66
2023/04/14 05:44:10;;;;;;;0.30;0.20;;;;;;;2.76;40.12;100170.44;4949200;29;20527;-65
2023/04/14 05:46:36;;;;;;;0.30;0.30;;;;;;;2.82;39.89;100163.38;4949462;29;20058;-65
2023/04/14 05:49:03;;;;;;;0.10;0.10;;;;;;;2.76;39.65;100165.03;4945459;29;20129;-66
2023/04/14 05:51:30;;;;;;;0.20;0.20;;;;;;;2.83;39.15;100170.41;4922200;29;20431;-65
2023/04/14 05:53:56;;;;;;;0.20;0.20;;;;;;;3.05;38.84;100167.41;4944985;29;20522;-65
2023/04/14 05:56:23;;;;;;;0.10;0.10;;;;;;;3.21;38.30;100171.47;4913922;29;20055;-65
2023/04/14 05:58:53;;;;;;;0.20;0.20;;;;;;;3.26;38.25;100171.66;4930710;29;20039;-66
2023/04/14 06:01:19;;;;;;;0.20;0.20;;;;;;;3.48;37.95;100182.94;4948289;29;20058;-66
2023/04/14 06:03:45;;;;;;;0.10;0.10;;;;;;;3.66;37.94;100170.53;4945158;29;20514;-66
2023/04/14 06:06:11;;;;;;;0.10;0.10;;;;;;;3.83;37.44;100162.72;4960614;28;20082;-66
2023/04/14 06:08:37;;;;;;;0.10;0.10;;;;;;;3.93;37.17;100181.16;4946528;29;20069;-67
2023/04/14 06:11:04;;;;;;;0.20;0.20;;;;;;;3.96;37.03;100165.28;4947651;29;20287;-66
2023/04/14 06:13:31;;;;;;;0.15;0.15;;;;;;;3.90;36.25;100176.16;4947316;29;20507;-66
2023/04/14 06:15:58;;;;;;;0.20;0.20;;;;;;;3.91;36.22;100175.16;4948220;29;20138;-66
2023/04/14 06:18:24;;;;;;;0.20;0.20;;;;;;;3.97;35.90;100182.38;4928247;29;20047;-65
2023/04/14 06:20:50;;;;;;;0.20;0.20;;;;;;;4.15;35.67;100181.59;4914787;29;20077;-66
2023/04/14 06:23:16;;;;;;;0.20;0.20;;;;;;;4.33;35.73;100182.66;4949301;29;20071;-65
2023/04/14 06:25:42;;;;;;;0.20;0.20;;;;;;;4.43;34.95;100179.44;4930412;29;20454;-66
2023/04/14 06:28:08;;;;;;;0.40;0.20;;;;;;;4.46;34.71;100184.41;4947098;29;20700;-65
2023/04/14 06:30:36;;;;;;;0.20;0.20;;;;;;;4.45;34.27;100191.72;4950429;29;20431;-66
2023/04/14 06:33:03;;;;;;;0.20;0.20;;;;;;;4.50;34.63;100191.84;4949566;29;20051;-66
2023/04/14 06:35:30;;;;;;;0.30;0.30;;;;;;;4.68;34.01;100179.34;4930949;28;20106;-65
2023/04/14 06:37:56;;;;;;;0.30;0.30;;;;;;;4.79;33.84;100184.03;4945976;29;20054;-66
2023/04/14 06:40:22;;;;;;;0.20;0.20;;;;;;;4.96;33.80;100188.81;4945750;29;20315;-66
2023/04/14 06:42:48;;;;;;;0.20;0.20;;;;;;;5.20;33.50;100197.06;4949361;29;20051;-65
2023/04/14 06:45:14;;;;;;;0.20;0.20;;;;;;;5.39;32.93;100204.09;4948158;29;20076;-65
2023/04/14 06:47:42;;;;;;;0.20;0.20;;;;;;;5.36;32.88;100203.72;4949134;29;20142;-65
2023/04/14 06:50:08;;;;;;;0.30;0.30;;;;;;;5.32;32.52;100186.28;4945864;29;20043;-65
2023/04/14 06:52:34;;;;;;;0.20;0.20;;;;;;;5.27;32.31;100197.81;4946457;29;20059;-65
2023/04/14 06:55:00;;;;;;;0.20;0.20;;;;;;;5.40;32.07;100196.78;4930114;29;20307;-66
2023/04/14 06:57:28;;;;;;;0.20;0.20;;;;;;;5.49;31.90;100202.69;4929183;29;20541;-65
2023/04/14 06:59:55;;;;;;;0.35;0.20;;;;;;;5.72;31.68;100193.78;4927592;29;20154;-67
2023/04/14 07:02:24;;;;;;;0.52;0.22;;;;;;;5.89;31.29;100199.38;4912876;29;20055;-65
2023/04/14 07:05:52;;;;;;;0.20;0.20;;;;;;;6.01;30.60;100190.41;4946288;29;20360;-65
2023/04/14 07:08:30;;;;;;;0.20;0.20;;;;;;;6.01;30.78;100214.84;4945183;29;20054;-66
2023/04/14 07:10:59;;;;;;;0.20;0.20;;;;;;;6.01;30.71;100209.41;4929455;29;20484;-65
2023/04/14 07:13:25;;;;;;;0.20;0.20;;;;;;;6.04;30.66;100215.22;4929597;29;20073;-65
2023/04/14 07:15:51;;;;;;;0.20;0.20;;;;;;;6.16;30.57;100207.09;4935188;28;20045;-65
2023/04/14 07:18:17;;;;;;;0.20;0.20;;;;;;;6.26;30.13;100202.97;4928333;29;20051;-67
2023/04/14 07:20:45;;;;;;;0.20;0.20;;;;;;;6.28;30.43;100207.13;4927002;29;20403;-65
2023/04/14 07:23:11;;;;;;;0.10;0.10;;;;;;;6.45;29.99;100209.13;4927679;29;20047;-65
2023/04/14 07:25:37;;;;;;;0.30;0.30;;;;;;;6.37;30.03;100185.84;4948321;29;20051;-66
2023/04/14 07:28:05;;;;;;;0.20;0.20;;;;;;;6.45;29.86;100204.50;4929427;28;20078;-65
2023/04/14 07:30:34;;;;;;;0.10;0.10;;;;;;;6.58;29.46;100208.88;4939659;28;21006;-66
2023/04/14 07:33:02;;;;;;;0.30;0.20;;;;;;;6.78;29.47;100194.88;4913176;29;20150;-65
2023/04/14 07:35:29;;;;;;;0.20;0.20;;;;;;;6.86;29.25;100201.00;4945423;29;20055;-66
2023/04/14 07:37:56;;;;;;;0.28;0.28;;;;;;;6.68;29.08;100191.97;4944698;29;20054;-66
2023/04/14 07:40:22;;;;;;;0.15;0.15;;;;;;;6.74;29.09;100204.56;4927729;29;20047;-65
2023/04/14 07:42:48;;;;;;;0.20;0.20;;;;;;;6.83;28.92;100196.06;4944905;29;20051;-65
2023/04/14 07:45:14;;;;;;;0.20;0.20;;;;;;;6.99;28.67;100203.47;4942617;29;20069;-65
2023/04/14 07:47:40;;;;;;;0.20;0.20;;;;;;;6.90;28.49;100197.59;4944598;29;20055;-65
2023/04/14 07:50:07;;;;;;;0.20;0.20;;;;;;;6.94;28.39;100195.19;4946790;29;20489;-65
2023/04/14 07:52:33;;;;;;;0.20;0.20;;;;;;;7.32;28.11;100190.19;4947938;29;20055;-66
2023/04/14 07:55:00;;;;;;;0.20;0.20;;;;;;;7.74;27.33;100192.59;4927330;29;20062;-65
2023/04/14 07:57:26;;;;;;;0.40;0.30;;;;;;;8.06;26.99;100186.56;4912650;29;20054;-66
2023/04/14 07:59:52;;;;;;;0.30;0.30;;;;;;;8.40;26.40;100182.97;4944638;29;20166;-66
2023/04/14 08:02:19;;;;;;;0.20;0.20;;;;;;;8.74;26.05;100202.00;4260123;28;10000434;-66
2023/04/14 08:04:45;;;;;;;0.20;0.20;;;;;;;8.90;25.79;100188.56;4942899;29;20051;-66
2023/04/14 08:07:11;;;;;;;0.20;0.20;;;;;;;9.04;25.66;100183.53;4926788;29;20051;-66
2023/04/14 08:09:38;;;;;;;0.30;0.30;;;;;;;9.19;25.48;100194.63;4940919;29;20079;-66
2023/04/14 08:12:05;;;;;;;0.30;0.30;;;;;;;9.48;24.93;100199.84;4925654;29;20089;-66
2023/04/14 08:14:32;;;;;;;0.30;0.30;;;;;;;9.65;24.68;100190.72;4941889;28;20047;-66
2023/04/14 08:16:58;;;;;;;0.30;0.30;;;;;;;9.91;24.74;100199.13;4926312;29;20043;-66
2023/04/14 08:19:24;;;;;;;0.20;0.20;;;;;;;10.05;24.33;100194.03;4942045;29;20313;-66
2023/04/14 08:21:51;;;;;;;0.30;0.30;;;;;;;10.29;24.36;100180.81;4944364;29;20183;-66
2023/04/14 08:24:17;;;;;;;0.30;0.30;;;;;;;10.66;23.82;100186.53;4943756;29;20059;-66
2023/04/14 08:26:43;;;;;;;0.30;0.30;;;;;;;11.20;23.38;100193.59;4944928;29;20538;-66
2023/04/14 08:29:10;;;;;;;0.90;0.30;;;;;;;11.51;22.83;100181.88;4928408;29;20137;-66
2023/04/14 08:31:36;;;;;;;0.30;0.30;;;;;;;11.40;22.28;100190.09;4944374;29;20137;-66
2023/04/14 08:34:02;;;;;;;0.38;0.38;;;;;;;11.24;22.69;100191.94;4945127;29;20650;-66
2023/04/14 08:36:30;;;;;;;0.30;0.30;;;;;;;11.51;22.60;100195.56;4945082;29;20485;-66
2023/04/14 08:38:57;;;;;;;;;;;;;;;11.72;22.34;100194.50;4946980;29;20051;-66
2023/04/14 08:41:23;;;;;;;;;;;;;;;12.08;21.62;100195.63;4946703;29;19931;-66
2023/04/14 08:43:49;;;;;;;0.30;0.30;;;;;;;12.41;21.48;100183.25;4945526;29;19933;-66
2023/04/14 08:46:18;;;;;;;0.30;0.30;;;;;;;12.70;21.04;100190.03;4946090;29;20071;-66
2023/04/14 08:48:46;;;;;;;0.32;0.30;;;;;;;12.82;21.06;100197.94;4928234;29;20043;-66
2023/04/14 08:51:20;;;;;;;0.35;0.35;;;;;;;12.87;20.77;100184.16;4944401;29;20079;-66
2023/04/14 08:53:47;;;;;;;0.30;0.30;;;;;;;12.73;20.99;100203.16;4926509;29;20406;-66
2023/04/14 08:56:17;;;;;;;0.40;0.40;;;;;;;12.70;20.85;100201.78;4945382;29;20039;-66
2023/04/14 08:58:43;;;;;;;0.38;0.38;;;;;;;12.81;20.63;100186.16;4944716;29;20046;-66
2023/04/14 09:01:10;;;;;;;0.30;0.30;;;;;;;13.21;20.30;100190.88;4927940;29;20443;-66
2023/04/14 09:03:38;;;;;;;0.30;0.30;;;;;;;13.51;19.87;100203.66;4941763;29;20844;-66
2023/04/14 09:06:05;;;;;;;0.40;0.40;;;;;;;13.71;19.69;100191.69;4926920;29;20597;-66
2023/04/14 09:08:34;;;;;;;0.40;0.40;;;;;;;13.93;19.17;100198.69;4944938;29;20262;-66
2023/04/14 09:11:00;;;;;;;0.30;0.30;;;;;;;13.77;19.53;100192.47;4930385;29;20055;-66
2023/04/14 09:13:27;;;;;;;0.40;0.40;;;;;;;14.01;19.01;100195.28;4946557;29;20062;-66
2023/04/14 09:15:54;;;;;;;0.40;0.40;;;;;;;14.03;19.04;100206.00;4946233;29;20534;-66
2023/04/14 09:18:20;;;;;;;0.30;0.30;;;;;;;14.26;19.17;100201.69;4943768;29;20614;-66
2023/04/14 09:20:48;;;;;;;0.65;0.50;;;;;;;14.91;18.24;100196.06;4944693;29;20075;-66
2023/04/14 09:23:14;;;;;;;0.40;0.40;;;;;;;15.41;17.87;100209.44;4945035;29;20043;-66
2023/04/14 09:25:41;;;;;;;0.50;0.50;;;;;;;15.65;17.84;100186.50;4944443;28;20051;-66
2023/04/14 09:28:07;;;;;;;0.50;0.50;;;;;;;15.62;17.79;100196.19;4944137;29;20589;-66
2023/04/14 09:30:33;;;;;;;0.95;0.60;;;;;;;15.36;18.41;100201.22;4924313;29;20051;-67
2023/04/14 09:33:03;;;;;;;0.50;0.50;;;;;;;15.99;17.84;100204.72;4950343;29;20122;-66
2023/04/14 09:35:43;;;;;;;0.60;0.60;;;;;;;16.50;17.47;100208.50;4950251;29;20584;-67
2023/04/14 09:38:10;;;;;;;0.60;0.60;;;;;;;16.35;17.24;100200.50;4949344;29;20051;-67
2023/04/14 09:40:37;;;;;;;;;;;;;;;16.48;17.04;100210.75;4950844;29;20047;-67
2023/04/14 09:43:04;;;;;;;0.55;0.55;;;;;;;16.00;17.41;100201.66;4930592;29;19926;-66
2023/04/14 09:45:43;;;;;;;0.60;0.60;;;;;;;15.98;17.37;100201.16;4934998;28;20516;-67
2023/04/14 09:48:11;;;;;;;0.95;0.60;;;;;;;15.77;17.40;100211.66;4937906;29;20507;-66
2023/04/14 09:50:59;;;;;;;0.70;0.70;;;;;;;16.05;17.09;100210.97;4914869;29;20051;-66
2023/04/14 09:53:27;;;;;;;0.70;0.70;;;;;;;16.10;17.10;100219.97;4913157;29;20128;-66
2023/04/14 09:55:53;;;;;;;0.77;0.73;;;;;;;16.58;16.84;100213.34;4929931;29;20518;-67
2023/04/14 09:58:21;;;;;;;0.65;0.65;;;;;;;16.80;16.86;100219.28;4930039;29;20281;-66
2023/04/14 10:00:58;;;;;;;0.70;0.70;;;;;;;17.09;16.70;100221.75;4930463;29;20437;-66
2023/04/14 10:03:38;;;;;;;0.82;0.82;;;;;;;17.70;16.21;100212.38;4939316;29;20054;-66
2023/04/14 10:06:06;;;;;;;0.93;0.90;;;;;;;17.60;15.98;100232.78;4947496;28;20051;-66
2023/04/14 10:08:39;;;;;;;0.85;0.85;;;;;;;17.61;15.85;100225.31;4950248;29;20284;-66
2023/04/14 10:11:17;;;;;;;0.90;0.90;;;;;;;17.54;15.90;100231.28;4951192;29;20496;-67
2023/04/14 10:13:42;;;;;;;;;;;;;;;17.32;15.68;100230.06;4949950;29;20066;-66
2023/04/14 10:16:09;;;;;;;0.80;0.80;;;;;;;17.60;15.74;100224.50;4917100;29;19926;-66
2023/04/14 10:18:35;;;;;;;0.90;0.90;;;;;;;17.82;15.22;100240.28;4948095;29;20498;-67
2023/04/14 10:21:03;;;;;;;1.00;1.00;;;;;;;17.66;15.27;100241.78;4950565;29;20055;-66
2023/04/14 10:23:30;;;;;;;;;;;;;;;17.53;15.38;100246.22;4950185;29;20178;-66
2023/04/14 10:26:00;;;;;;;1.00;1.00;;;;;;;17.38;15.59;100239.09;4950226;29;19926;-66
2023/04/14 10:28:27;;;;;;;1.20;1.10;;;;;;;17.35;15.73;100236.94;4947963;29;20055;-66
2023/04/14 10:30:56;;;;;;;1.00;1.00;;;;;;;17.98;15.28;100245.44;4949499;29;20073;-66
2023/04/14 10:33:22;;;;;;;1.10;1.10;;;;;;;18.69;14.65;100257.78;4948061;29;20563;-66
2023/04/14 10:35:54;;;;;;;1.00;1.00;;;;;;;19.54;14.50;100250.41;4933577;29;20054;-68
2023/04/14 10:38:20;;;;;;;1.10;1.10;;;;;;;20.16;13.75;100230.97;4931442;29;20082;-67
2023/04/14 10:40:46;;;;;;;1.10;1.10;;;;;;;19.90;13.48;100232.63;4931038;29;20071;-67
2023/04/14 10:43:14;;;;;;;1.00;1.00;;;;;;;19.17;13.80;100258.97;4926977;29;20435;-66
2023/04/14 10:45:52;;;;;;;1.10;1.10;;;;;;;19.05;14.30;100242.97;4949022;29;20051;-66
2023/04/14 10:48:18;;;;;;;1.20;1.10;;;;;;;19.39;13.40;100258.06;4947654;28;20062;-67
2023/04/14 10:50:46;;;;;;;1.10;1.10;;;;;;;19.12;14.02;100245.25;4950536;29;20125;-67
2023/04/14 10:53:12;;;;;;;1.10;1.10;;;;;;;19.73;13.44;100252.03;4933945;29;20058;-67
2023/04/14 10:55:47;;;;;;;1.15;1.10;;;;;;;20.59;12.97;100240.34;4950164;29;20138;-67
2023/04/14 10:58:19;;;;;;;1.10;1.10;;;;;;;20.50;12.67;100252.31;4933334;29;20050;-66
2023/04/14 11:00:53;;;;;;;1.27;1.20;;;;;;;20.54;12.61;100236.59;4948639;29;20101;-67
2023/04/14 11:03:19;;;;;;;1.42;1.20;;;;;;;20.61;12.55;100249.97;4949062;29;20066;-66
2023/04/14 11:05:48;;;;;;;1.20;1.20;;;;;;;20.76;12.70;100247.78;4949355;29;20057;-67
2023/04/14 11:08:15;;;;;;;1.20;1.20;;;;;;;21.02;12.49;100250.47;4948695;29;20058;-67
2023/04/14 11:10:50;;;;;;;1.30;1.20;;;;;;;21.36;12.55;100247.84;4927226;29;20371;-66
2023/04/14 11:13:16;;;;;;;1.30;1.20;;;;;;;22.05;11.72;100258.78;4903669;29;20152;-66
2023/04/14 11:15:48;;;;;;;1.25;1.20;;;;;;;22.03;11.80;100252.75;4930543;29;20048;-67
2023/04/14 11:18:16;;;;;;;1.20;1.20;;;;;;;21.45;11.84;100270.03;4929366;29;20047;-67
2023/04/14 11:20:43;;;;;;;1.30;1.20;;;;;;;21.73;11.42;100256.44;4930840;29;20056;-67
2023/04/14 11:23:11;;;;;;;1.30;1.20;;;;;;;21.58;11.59;100251.44;4912503;29;20051;-67
2023/04/14 11:25:39;;;;;;;1.30;1.20;;;;;;;21.17;11.88;100262.19;4899328;29;20063;-67
2023/04/14 11:28:06;;;;;;;1.30;1.20;;;;;;;21.36;11.67;100253.41;4930853;29;20062;-67
2023/04/14 11:30:32;;;;;;;1.30;1.20;;;;;;;21.81;11.42;100255.56;4930754;29;20141;-67
2023/04/14 11:33:00;;;;;;;1.30;1.20;;;;;;;22.27;11.41;100251.19;4919645;29;20672;-67
2023/04/14 11:35:27;;;;;;;1.30;1.20;;;;;;;22.35;11.43;100250.31;4925953;29;20043;-67
2023/04/14 11:37:54;;;;;;;1.30;1.20;;;;;;;22.39;11.39;100251.22;4931089;29;20518;-67
2023/04/14 11:40:22;;;;;;;1.30;1.20;;;;;;;22.59;10.94;100248.75;4920966;29;20108;-67